Time;durP1;ratioP1;P1;durP2;ratioP2;P2;SDS_P1;SDS_P2;PMS_P1;PMS_P2;Temp;Humidity;BMP_temperature;BMP_pressure;BME280_temperature;BME280_humidity;BME280_pressure;Samples;Min_cycle;Max_cycle;Signal;HPM_P1;HPM_P2
2023/03/09 00:01:36;;;;;;;14.40;8.52;;;0.00;92.90;;;;;;5052055;28;20094;-81
2023/03/09 00:04:03;;;;;;;15.50;8.38;;;0.00;93.00;;;;;;5045316;28;20049;-80
2023/03/09 00:06:29;;;;;;;13.10;8.50;;;0.00;93.10;;;;;;5048658;28;20029;-80
2023/03/09 00:08:55;;;;;;;15.27;9.15;;;0.00;93.30;;;;;;5051439;28;20112;-80
2023/03/09 00:11:20;;;;;;;15.65;9.00;;;0.00;93.40;;;;;;5052097;28;20116;-81
2023/03/09 00:13:47;;;;;;;16.75;9.05;;;0.00;93.60;;;;;;5050387;28;20033;-80
2023/03/09 00:16:21;;;;;;;14.40;8.48;;;0.10;93.80;;;;;;5051050;28;20032;-81
2023/03/09 00:18:47;;;;;;;18.40;9.55;;;0.10;93.80;;;;;;5051905;28;20052;-81
2023/03/09 00:21:25;;;;;;;14.30;8.45;;;0.10;93.90;;;;;;5054704;28;20068;-81
2023/03/09 00:23:50;;;;;;;14.65;8.02;;;0.10;94.00;;;;;;5052875;28;20435;-81
2023/03/09 00:26:16;;;;;;;14.40;9.10;;;0.10;94.10;;;;;;5043737;28;20022;-80
2023/03/09 00:28:41;;;;;;;16.13;9.88;;;0.10;94.10;;;;;;5050833;28;20067;-81
2023/03/09 00:31:07;;;;;;;15.85;9.25;;;0.10;94.20;;;;;;5051619;28;20082;-81
2023/03/09 00:33:32;;;;;;;14.05;8.98;;;0.10;94.30;;;;;;5051310;28;20025;-80
2023/03/09 00:35:58;;;;;;;15.30;9.82;;;0.10;94.30;;;;;;5059451;28;20469;-81
2023/03/09 00:38:24;;;;;;;17.95;10.02;;;0.10;94.40;;;;;;5057167;28;20068;-81
2023/03/09 00:40:50;;;;;;;18.92;9.73;;;0.10;94.40;;;;;;5053872;28;20039;-81
2023/03/09 00:43:16;;;;;;;18.67;10.25;;;0.10;94.40;;;;;;5048910;28;20120;-80
2023/03/09 00:45:41;;;;;;;16.98;9.75;;;0.10;94.50;;;;;;5052161;28;20029;-81
2023/03/09 00:48:07;;;;;;;18.50;9.82;;;0.00;94.50;;;;;;5056387;28;20362;-81
2023/03/09 00:50:32;;;;;;;17.38;9.85;;;0.10;94.60;;;;;;5048446;28;20033;-80
2023/03/09 00:52:58;;;;;;;18.00;9.32;;;0.10;94.60;;;;;;5053041;28;20029;-81
2023/03/09 00:55:23;;;;;;;17.50;9.55;;;0.10;94.70;;;;;;5051153;28;20025;-81
2023/03/09 00:57:49;;;;;;;15.43;8.98;;;0.10;94.60;;;;;;5056988;28;20040;-80
2023/03/09 01:00:14;;;;;;;15.70;9.32;;;0.10;94.70;;;;;;5050517;28;20044;-80
2023/03/09 01:02:40;;;;;;;18.60;10.68;;;0.10;94.70;;;;;;5050183;28;20041;-81
2023/03/09 01:05:06;;;;;;;18.25;8.90;;;0.10;94.70;;;;;;5052373;28;20374;-81
2023/03/09 01:07:32;;;;;;;17.33;9.73;;;0.10;94.70;;;;;;5051546;28;20028;-81
2023/03/09 01:09:58;;;;;;;16.42;9.20;;;0.10;94.70;;;;;;5039791;28;20029;-80
2023/03/09 01:12:23;;;;;;;15.50;9.10;;;0.10;94.70;;;;;;5049253;28;20370;-80
2023/03/09 01:14:53;;;;;;;15.50;8.38;;;0.10;94.90;;;;;;5049404;28;20075;-81
2023/03/09 01:17:19;;;;;;;17.13;9.48;;;0.10;94.90;;;;;;5032623;28;20159;-81
2023/03/09 01:19:44;;;;;;;15.63;9.68;;;0.10;95.00;;;;;;5050048;28;20081;-81
2023/03/09 01:22:10;;;;;;;16.20;9.68;;;0.10;95.20;;;;;;5053848;28;20033;-81
2023/03/09 01:24:35;;;;;;;18.23;9.98;;;0.10;95.30;;;;;;5049601;28;20460;-81
2023/03/09 01:27:01;;;;;;;15.18;9.13;;;0.10;95.30;;;;;;5044774;28;20033;-80
2023/03/09 01:29:26;;;;;;;16.15;9.35;;;0.10;95.30;;;;;;5048047;28;20102;-81
2023/03/09 01:31:52;;;;;;;17.95;10.07;;;0.10;95.30;;;;;;5052384;28;20029;-81
2023/03/09 01:34:18;;;;;;;18.38;9.65;;;0.10;95.40;;;;;;5029732;28;20499;-80
2023/03/09 01:36:43;;;;;;;16.83;9.23;;;0.10;95.40;;;;;;5045291;28;20489;-81
2023/03/09 01:39:09;;;;;;;19.73;9.10;;;0.10;95.40;;;;;;5043054;28;20103;-80
2023/03/09 01:41:35;;;;;;;16.13;9.35;;;0.10;95.40;;;;;;5050717;28;20159;-81
2023/03/09 01:44:00;;;;;;;15.98;9.77;;;0.00;95.40;;;;;;5045827;28;20548;-80
2023/03/09 01:46:36;;;;;;;15.13;8.93;;;0.00;95.50;;;;;;5051029;28;20495;-81
2023/03/09 01:49:11;;;;;;;16.90;9.25;;;0.00;95.50;;;;;;5047300;28;20034;-80
2023/03/09 01:51:47;;;;;;;17.13;9.40;;;0.10;95.50;;;;;;5047302;28;20082;-80
2023/03/09 01:54:25;;;;;;;14.82;8.40;;;0.00;95.50;;;;;;5051265;28;20126;-81
2023/03/09 01:56:56;;;;;;;19.25;9.40;;;0.00;95.50;;;;;;5062190;28;20033;-80
2023/03/09 01:59:27;;;;;;;16.15;8.35;;;0.00;95.60;;;;;;5049214;28;20037;-81
2023/03/09 02:01:52;;;;;;;16.95;9.35;;;0.00;95.50;;;;;;5056108;28;20033;-81
2023/03/09 02:04:26;;;;;;;17.73;10.73;;;0.00;95.50;;;;;;5045786;28;20470;-80
2023/03/09 02:06:53;;;;;;;19.90;9.50;;;0.00;95.60;;;;;;5048696;28;20389;-80
2023/03/09 02:10:02;;;;;;;17.77;10.40;;;0.00;95.60;;;;;;5050265;28;20545;-81
2023/03/09 02:12:28;;;;;;;16.33;9.15;;;0.00;95.70;;;;;;5014892;28;20398;-80
2023/03/09 02:14:55;;;;;;;18.10;9.68;;;0.00;95.70;;;;;;5057649;28;20050;-81
2023/03/09 02:17:22;;;;;;;18.77;10.57;;;0.00;95.70;;;;;;5055634;28;20110;-81
2023/03/09 02:20:12;;;;;;;17.90;10.73;;;0.00;95.70;;;;;;5038895;28;20029;-81
2023/03/09 02:22:39;;;;;;;19.90;9.52;;;0.00;95.80;;;;;;5045722;28;20029;-81
2023/03/09 02:25:40;;;;;;;15.02;9.02;;;0.00;95.70;;;;;;5047966;28;20039;-81
2023/03/09 02:28:07;;;;;;;14.88;8.82;;;0.00;95.80;;;;;;5043399;28;20024;-81
2023/03/09 02:30:37;;;;;;;19.13;10.38;;;0.00;95.80;;;;;;5046598;28;20107;-81
2023/03/09 02:33:11;;;;;;;19.05;8.90;;;0.00;95.80;;;;;;5050808;28;20051;-81
2023/03/09 02:35:37;;;;;;;18.65;9.27;;;0.00;95.80;;;;;;5051783;28;20075;-81
2023/03/09 02:38:03;;;;;;;18.63;10.00;;;0.00;95.80;;;;;;5051560;28;20037;-81
2023/03/09 02:40:36;;;;;;;18.67;9.65;;;0.00;95.80;;;;;;5050379;28;20443;-81
2023/03/09 02:43:03;;;;;;;19.38;9.60;;;0.00;95.80;;;;;;5048361;28;20045;-80
2023/03/09 02:45:30;;;;;;;18.15;9.93;;;0.00;95.80;;;;;;5049919;28;20417;-81
2023/03/09 02:47:57;;;;;;;15.63;9.45;;;0.00;95.80;;;;;;5050919;28;20507;-81
2023/03/09 02:50:24;;;;;;;16.65;9.10;;;0.00;95.80;;;;;;5052072;28;20371;-81
2023/03/09 02:52:50;;;;;;;18.45;9.82;;;0.00;95.80;;;;;;5046513;28;20469;-81
2023/03/09 02:55:15;;;;;;;18.92;9.52;;;0.00;95.80;;;;;;5025734;28;20124;-81
2023/03/09 02:57:41;;;;;;;17.85;9.25;;;0.00;95.80;;;;;;5043793;28;20111;-80
2023/03/09 03:00:09;;;;;;;17.33;9.63;;;0.00;95.80;;;;;;5041425;28;20030;-81
2023/03/09 03:02:35;;;;;;;16.10;9.52;;;0.00;95.90;;;;;;5033708;28;20119;-80
2023/03/09 03:05:01;;;;;;;16.73;8.40;;;0.00;95.80;;;;;;5053046;28;20477;-80
2023/03/09 03:07:26;;;;;;;15.43;8.90;;;0.00;95.90;;;;;;5051055;28;20040;-81
2023/03/09 03:09:51;;;;;;;15.10;8.77;;;0.00;95.80;;;;;;5043372;28;20064;-80
2023/03/09 03:12:18;;;;;;;17.88;9.32;;;0.00;95.90;;;;;;5035152;28;20032;-81
2023/03/09 03:14:44;;;;;;;15.82;8.40;;;0.00;95.80;;;;;;5048220;28;20103;-81
2023/03/09 03:17:09;;;;;;;15.40;8.65;;;0.00;95.70;;;;;;5050830;28;20128;-81
2023/03/09 03:19:35;;;;;;;14.95;9.23;;;0.00;95.80;;;;;;5047720;28;20538;-80
2023/03/09 03:22:00;;;;;;;16.63;8.00;;;0.00;95.80;;;;;;5049712;28;20540;-80
2023/03/09 03:24:26;;;;;;;14.52;8.70;;;0.00;95.90;;;;;;5045718;28;20385;-81
2023/03/09 03:26:51;;;;;;;17.17;8.80;;;0.00;95.80;;;;;;5046848;28;20116;-81
2023/03/09 03:29:17;;;;;;;18.27;8.85;;;0.00;95.90;;;;;;5046052;28;20132;-81
2023/03/09 03:31:42;;;;;;;16.05;8.48;;;0.00;95.80;;;;;;5050869;28;20369;-81
2023/03/09 03:34:08;;;;;;;14.57;8.10;;;0.00;96.00;;;;;;5048570;28;20037;-81
2023/03/09 03:36:34;;;;;;;15.75;8.00;;;0.00;95.90;;;;;;5056739;28;20044;-81
2023/03/09 03:38:59;;;;;;;12.57;7.43;;;0.00;95.90;;;;;;5061612;28;20088;-80
2023/03/09 03:41:25;;;;;;;14.85;8.32;;;0.00;95.90;;;;;;5062793;28;20040;-80
2023/03/09 03:43:50;;;;;;;16.60;8.02;;;0.00;96.00;;;;;;5062881;28;20041;-80
2023/03/09 03:46:15;;;;;;;11.60;6.90;;;0.00;96.00;;;;;;5054307;28;20037;-81
2023/03/09 03:48:42;;;;;;;14.68;7.88;;;-3276.70;95.90;;;;;;5048183;28;20040;-80
2023/03/09 03:51:08;;;;;;;14.85;8.45;;;-3276.70;96.00;;;;;;5032688;28;20029;-81
2023/03/09 03:53:34;;;;;;;15.18;7.28;;;-3276.70;96.00;;;;;;5050995;28;20064;-81
2023/03/09 03:56:00;;;;;;;15.30;7.93;;;-3276.70;96.00;;;;;;5052477;28;20068;-81
2023/03/09 03:58:26;;;;;;;15.00;7.90;;;-3276.70;96.10;;;;;;5053533;28;20123;-81
2023/03/09 04:00:51;;;;;;;13.35;7.85;;;-3276.70;96.00;;;;;;5050710;28;20500;-81
2023/03/09 04:03:17;;;;;;;14.00;7.93;;;-3276.70;96.00;;;;;;5052381;28;20052;-80
2023/03/09 04:05:42;;;;;;;12.45;7.88;;;-3276.70;96.00;;;;;;5046311;28;20094;-80
2023/03/09 04:08:08;;;;;;;13.38;7.20;;;-3276.70;96.10;;;;;;5047314;28;20032;-80
2023/03/09 04:10:33;;;;;;;18.50;7.75;;;-3276.70;96.20;;;;;;5053954;28;20052;-80
2023/03/09 04:12:59;;;;;;;15.60;8.32;;;-3276.70;96.10;;;;;;5063291;28;20151;-80
2023/03/09 04:15:25;;;;;;;14.95;8.27;;;-3276.70;96.10;;;;;;5047245;28;20212;-80
2023/03/09 04:17:51;;;;;;;16.40;8.60;;;-3276.70;96.20;;;;;;5057761;28;20048;-80
2023/03/09 04:20:16;;;;;;;13.23;7.53;;;-3276.70;96.10;;;;;;5049420;28;20638;-80
2023/03/09 04:22:42;;;;;;;12.52;7.38;;;-3276.70;96.10;;;;;;5048297;28;20129;-80
2023/03/09 04:25:08;;;;;;;16.50;8.07;;;-3276.70;96.10;;;;;;5046569;28;20064;-80
2023/03/09 04:27:33;;;;;;;15.23;7.47;;;-3276.70;96.10;;;;;;5047068;28;20045;-80
2023/03/09 04:29:59;;;;;;;15.40;7.70;;;-3276.70;96.10;;;;;;5053053;28;20044;-80
2023/03/09 04:32:24;;;;;;;16.08;8.20;;;-3276.70;96.10;;;;;;5049932;28;20033;-80
2023/03/09 04:34:50;;;;;;;13.10;7.45;;;0.00;96.10;;;;;;5055802;28;20037;-80
2023/03/09 04:37:15;;;;;;;17.20;7.82;;;0.00;96.20;;;;;;5048705;28;20037;-80
2023/03/09 04:39:41;;;;;;;13.23;8.10;;;0.00;96.20;;;;;;5047232;28;20036;-80
2023/03/09 04:42:06;;;;;;;16.98;8.07;;;-3276.70;95.90;;;;;;5052312;28;20388;-80
2023/03/09 04:44:32;;;;;;;13.63;7.32;;;-3276.70;96.00;;;;;;5051435;28;20029;-80
2023/03/09 04:46:57;;;;;;;15.65;8.02;;;0.00;96.00;;;;;;5051494;28;20104;-81
2023/03/09 04:49:23;;;;;;;13.23;7.38;;;-3276.70;95.80;;;;;;5052190;28;20214;-80
2023/03/09 04:51:48;;;;;;;16.17;7.32;;;-3276.70;95.80;;;;;;5049772;28;20421;-80
2023/03/09 04:54:13;;;;;;;14.43;7.45;;;0.00;95.90;;;;;;5052735;28;20043;-81
2023/03/09 04:56:39;;;;;;;15.68;7.15;;;0.00;95.80;;;;;;5048282;28;20075;-80
2023/03/09 04:59:04;;;;;;;13.38;6.45;;;-3276.70;95.80;;;;;;5050119;28;20040;-80
2023/03/09 05:01:30;;;;;;;14.55;6.72;;;-3276.70;95.80;;;;;;5041140;28;20063;-81
2023/03/09 05:03:55;;;;;;;12.80;7.57;;;-3276.70;95.80;;;;;;5032395;28;20060;-80
2023/03/09 05:06:21;;;;;;;13.45;7.05;;;-3276.70;95.70;;;;;;5048668;28;20040;-81
2023/03/09 05:08:46;;;;;;;12.88;7.25;;;-3276.70;95.70;;;;;;5049800;28;20033;-80
2023/03/09 05:11:12;;;;;;;12.57;6.93;;;-3276.70;95.70;;;;;;5052613;28;20766;-80
2023/03/09 05:13:37;;;;;;;12.05;7.00;;;-3276.70;95.70;;;;;;5052260;28;20583;-81
2023/03/09 05:16:07;;;;;;;13.52;7.30;;;-3276.70;95.80;;;;;;5059821;28;20033;-81
2023/03/09 05:18:36;;;;;;;10.88;6.20;;;-3276.70;95.80;;;;;;5056321;28;20362;-80
2023/03/09 05:21:08;;;;;;;13.30;6.60;;;-3276.70;95.80;;;;;;5050837;28;20075;-80
2023/03/09 05:23:34;;;;;;;13.27;7.47;;;-3276.70;95.90;;;;;;5041050;28;20108;-80
2023/03/09 05:26:01;;;;;;;13.30;7.20;;;-3276.60;96.00;;;;;;5048049;28;20033;-80
2023/03/09 05:28:27;;;;;;;13.55;7.43;;;-3276.60;96.10;;;;;;5045094;28;20052;-78
2023/03/09 05:30:53;;;;;;;20.65;9.32;;;-3276.70;96.20;;;;;;5023534;28;22312;-79
2023/03/09 05:33:19;;;;;;;15.32;8.20;;;-3276.60;96.20;;;;;;5044054;28;20036;-74
2023/03/09 05:35:44;;;;;;;16.13;8.30;;;-3276.60;96.30;;;;;;5049517;28;20377;-76
2023/03/09 05:38:09;;;;;;;13.63;7.25;;;-3276.50;96.30;;;;;;5053955;28;20068;-75
2023/03/09 05:40:35;;;;;;;13.90;8.25;;;-3276.60;96.30;;;;;;5049421;28;20021;-77
2023/03/09 05:43:01;;;;;;;12.27;7.07;;;-3276.50;96.40;;;;;;5044207;28;20439;-80
2023/03/09 05:45:27;;;;;;;15.30;7.28;;;-3276.60;96.50;;;;;;5049963;28;20037;-78
2023/03/09 05:47:52;;;;;;;12.77;6.88;;;-3276.50;96.50;;;;;;5048178;28;20033;-79
2023/03/09 05:50:18;;;;;;;14.90;7.78;;;-3276.50;96.60;;;;;;5049696;28;20025;-78
2023/03/09 05:52:43;;;;;;;14.63;7.72;;;-3276.60;96.70;;;;;;5044128;28;20034;-80
2023/03/09 05:55:09;;;;;;;11.90;7.05;;;-3276.60;96.80;;;;;;5046808;28;20033;-78
2023/03/09 05:57:35;;;;;;;16.40;7.82;;;-3276.60;96.70;;;;;;5046517;28;20076;-78
2023/03/09 06:00:00;;;;;;;13.20;7.63;;;-3276.60;96.80;;;;;;5045283;28;20954;-77
2023/03/09 06:02:26;;;;;;;14.18;7.65;;;-3276.60;96.80;;;;;;5043015;28;20083;-73
2023/03/09 06:04:51;;;;;;;15.35;7.32;;;-3276.60;96.80;;;;;;5043027;28;20030;-75
2023/03/09 06:07:17;;;;;;;16.58;8.45;;;-3276.60;96.80;;;;;;5049826;28;20174;-76
2023/03/09 06:09:44;;;;;;;14.65;8.30;;;-3276.60;96.80;;;;;;5034026;28;20043;-76
2023/03/09 06:12:10;;;;;;;16.10;7.68;;;-3276.60;97.00;;;;;;5054828;28;20029;-76
2023/03/09 06:14:35;;;;;;;12.35;7.47;;;-3276.60;96.80;;;;;;5049390;28;20388;-76
2023/03/09 06:17:01;;;;;;;16.08;8.02;;;-3276.60;96.80;;;;;;5049461;28;20037;-76
2023/03/09 06:19:26;;;;;;;16.70;7.95;;;-3276.60;96.80;;;;;;5047738;28;20082;-75
2023/03/09 06:21:52;;;;;;;15.70;8.60;;;-3276.60;96.80;;;;;;5033433;28;20048;-77
2023/03/09 06:24:18;;;;;;;16.33;7.93;;;-3276.60;96.90;;;;;;5049760;28;20049;-77
2023/03/09 06:26:43;;;;;;;15.88;8.07;;;-3276.60;96.80;;;;;;5048409;28;20035;-78
2023/03/09 06:29:09;;;;;;;14.48;8.20;;;-3276.70;96.80;;;;;;5034353;28;20095;-78
2023/03/09 06:31:34;;;;;;;15.93;8.82;;;-3276.70;96.80;;;;;;5040551;28;20108;-78
2023/03/09 06:34:00;;;;;;;17.70;9.52;;;-3276.70;96.80;;;;;;5040772;28;20074;-78
2023/03/09 06:36:25;;;;;;;15.38;8.05;;;-3276.70;96.80;;;;;;5045158;28;20047;-78
2023/03/09 06:38:51;;;;;;;14.05;8.05;;;-3276.70;96.80;;;;;;5047943;28;20429;-79
2023/03/09 06:41:16;;;;;;;13.43;8.88;;;-3276.70;96.80;;;;;;5049179;28;20029;-81
2023/03/09 06:43:45;;;;;;;17.92;9.45;;;-3276.70;96.70;;;;;;5051421;28;20105;-80
2023/03/09 06:46:10;;;;;;;16.90;9.00;;;0.00;96.70;;;;;;5049044;28;20087;-78
2023/03/09 06:48:37;;;;;;;18.48;9.60;;;0.00;96.70;;;;;;5051015;28;20027;-78
2023/03/09 06:51:02;;;;;;;14.25;8.63;;;0.00;96.70;;;;;;5051145;28;20104;-79
2023/03/09 06:53:28;;;;;;;16.60;9.18;;;0.10;96.60;;;;;;5050989;28;20124;-78
2023/03/09 06:55:53;;;;;;;17.40;9.75;;;0.10;96.50;;;;;;5031969;28;20087;-78
2023/03/09 06:58:19;;;;;;;19.92;10.02;;;0.10;96.50;;;;;;5062780;28;20053;-79
2023/03/09 07:00:46;;;;;;;15.93;9.10;;;0.20;96.40;;;;;;5051672;28;20033;-79
2023/03/09 07:03:15;;;;;;;16.63;8.85;;;0.20;96.40;;;;;;5051610;28;20037;-79
2023/03/09 07:05:41;;;;;;;16.20;9.35;;;0.10;96.20;;;;;;5046923;28;20028;-80
2023/03/09 07:08:07;;;;;;;15.48;9.73;;;0.20;96.10;;;;;;5062184;28;20024;-80
2023/03/09 07:10:32;;;;;;;17.35;9.55;;;0.20;96.00;;;;;;5051460;28;20029;-79
2023/03/09 07:12:58;;;;;;;16.50;9.77;;;0.30;95.90;;;;;;5046119;28;20048;-79
2023/03/09 07:15:23;;;;;;;18.85;10.70;;;0.30;95.90;;;;;;5050516;28;20054;-79
2023/03/09 07:17:49;;;;;;;18.55;9.95;;;0.40;95.80;;;;;;5051414;28;20108;-79
2023/03/09 07:20:15;;;;;;;17.55;9.82;;;0.50;95.90;;;;;;5050183;28;20021;-79
2023/03/09 07:22:41;;;;;;;16.02;9.35;;;0.50;95.80;;;;;;5047295;28;20374;-81
2023/03/09 07:25:07;;;;;;;19.23;10.73;;;0.50;95.60;;;;;;5052585;28;20032;-79
2023/03/09 07:27:32;;;;;;;19.63;10.30;;;0.60;95.50;;;;;;5052935;28;20037;-79
2023/03/09 07:29:58;;;;;;;17.60;9.95;;;0.50;94.90;;;;;;5050459;28;20053;-78
2023/03/09 07:32:23;;;;;;;19.30;9.82;;;0.60;95.20;;;;;;5054907;28;20059;-81
2023/03/09 07:34:49;;;;;;;18.30;10.63;;;0.60;95.10;;;;;;5053582;28;20448;-79
2023/03/09 07:37:15;;;;;;;15.93;9.77;;;0.70;95.20;;;;;;5047731;28;20116;-81
2023/03/09 07:39:40;;;;;;;17.63;10.68;;;0.70;94.90;;;;;;5053136;28;20472;-81
2023/03/09 07:42:06;;;;;;;19.15;10.55;;;0.80;94.80;;;;;;5056659;28;20667;-79
2023/03/09 07:44:32;;;;;;;17.30;10.07;;;0.80;94.40;;;;;;5051211;28;20032;-79
2023/03/09 07:46:57;;;;;;;16.05;9.88;;;0.90;94.70;;;;;;5033448;28;20052;-80
2023/03/09 07:49:23;;;;;;;17.75;10.20;;;0.90;94.50;;;;;;5051205;28;20033;-78
2023/03/09 07:51:48;;;;;;;15.40;9.60;;;0.80;94.10;;;;;;5047798;28;20466;-79
2023/03/09 07:54:14;;;;;;;17.73;9.93;;;1.00;94.30;;;;;;5047884;28;20041;-78
2023/03/09 07:56:42;;;;;;;14.70;9.35;;;1.00;94.10;;;;;;5043223;28;20029;-79
2023/03/09 07:59:14;;;;;;;18.55;10.30;;;1.00;93.80;;;;;;5049525;28;20033;-79
2023/03/09 08:01:40;;;;;;;15.95;8.82;;;1.10;93.80;;;;;;5048832;28;20025;-79
2023/03/09 08:04:05;;;;;;;16.25;8.98;;;1.20;93.90;;;;;;5048340;28;20503;-78
2023/03/09 08:06:31;;;;;;;16.45;9.93;;;1.30;93.90;;;;;;5044710;28;20044;-79
2023/03/09 08:08:56;;;;;;;16.67;10.05;;;1.30;93.70;;;;;;5058605;28;20025;-79
2023/03/09 08:11:23;;;;;;;16.20;9.73;;;1.40;93.30;;;;;;5027096;28;20064;-79
2023/03/09 08:13:48;;;;;;;16.00;9.75;;;1.30;92.90;;;;;;5044188;28;20135;-78
2023/03/09 08:16:14;;;;;;;16.83;9.80;;;1.50;93.20;;;;;;5052367;28;20060;-79
2023/03/09 08:18:41;;;;;;;16.30;9.15;;;1.60;93.00;;;;;;5054032;28;20033;-79
2023/03/09 08:21:09;;;;;;;15.30;9.60;;;1.60;92.60;;;;;;5054629;28;20087;-79
2023/03/09 08:23:39;;;;;;;14.38;8.88;;;1.70;92.60;;;;;;5053446;28;20029;-79
2023/03/09 08:26:05;;;;;;;17.23;10.60;;;1.90;92.60;;;;;;5047947;28;20029;-79
2023/03/09 08:28:31;;;;;;;16.88;9.38;;;1.80;92.10;;;;;;5042546;28;20037;-80
2023/03/09 08:30:56;;;;;;;14.05;9.13;;;2.10;92.60;;;;;;5033866;28;20057;-79
2023/03/09 08:33:22;;;;;;;16.20;9.95;;;2.20;92.10;;;;;;5046061;28;20041;-77
2023/03/09 08:35:47;;;;;;;17.13;9.85;;;2.30;92.20;;;;;;5048887;28;20045;-77
2023/03/09 08:38:13;;;;;;;14.73;8.65;;;2.30;91.50;;;;;;5027303;28;20087;-77
2023/03/09 08:40:38;;;;;;;17.48;9.40;;;2.60;91.30;;;;;;5048719;28;20032;-78
2023/03/09 08:43:05;;;;;;;17.13;9.48;;;2.80;91.50;;;;;;5052759;28;20116;-79
2023/03/09 08:45:30;;;;;;;16.75;9.38;;;2.70;89.90;;;;;;5044176;28;20033;-80
2023/03/09 08:47:56;;;;;;;16.08;8.77;;;2.60;89.90;;;;;;5042269;28;20410;-80
2023/03/09 08:50:21;;;;;;;15.73;8.20;;;2.80;90.00;;;;;;5043233;28;20051;-81
2023/03/09 08:52:46;;;;;;;14.68;8.50;;;2.90;89.60;;;;;;5050274;28;20119;-80
2023/03/09 08:55:12;;;;;;;13.18;7.93;;;2.60;88.30;;;;;;5049682;28;20033;-82
2023/03/09 08:57:38;;;;;;;14.32;7.32;;;2.60;88.10;;;;;;5045263;28;20363;-80
2023/03/09 09:00:07;;;;;;;13.25;8.30;;;2.40;87.10;;;;;;5046080;28;20025;-80
2023/03/09 09:02:33;;;;;;;14.30;7.53;;;2.60;87.60;;;;;;5047313;28;20077;-80
2023/03/09 09:04:58;;;;;;;11.52;7.28;;;3.10;88.60;;;;;;5034526;28;20511;-80
2023/03/09 09:07:24;;;;;;;12.50;7.85;;;3.30;88.00;;;;;;5061187;28;20037;-80
2023/03/09 09:09:49;;;;;;;10.82;7.05;;;3.50;86.70;;;;;;5052740;28;20029;-80
2023/03/09 09:12:15;;;;;;;13.98;7.15;;;3.50;86.60;;;;;;5048851;28;20543;-80
2023/03/09 09:14:42;;;;;;;11.98;7.65;;;3.20;85.80;;;;;;5053503;28;20028;-80
2023/03/09 09:17:08;;;;;;;13.65;7.15;;;3.10;86.50;;;;;;5056334;28;20496;-80
2023/03/09 09:19:34;;;;;;;12.85;6.95;;;3.40;86.80;;;;;;5044830;28;20732;-80
2023/03/09 09:22:00;;;;;;;11.38;6.63;;;3.60;85.80;;;;;;5052510;28;20136;-78
2023/03/09 09:24:29;;;;;;;11.10;6.90;;;3.40;85.30;;;;;;5054865;28;20548;-77
2023/03/09 09:26:55;;;;;;;10.43;6.95;;;3.40;85.30;;;;;;5043749;28;20036;-78
2023/03/09 09:29:20;;;;;;;12.75;6.85;;;3.50;85.50;;;;;;5043490;28;20452;-78
2023/03/09 09:31:47;;;;;;;12.30;6.68;;;3.50;85.60;;;;;;5052633;28;20379;-77
2023/03/09 09:34:13;;;;;;;12.60;6.57;;;3.30;84.60;;;;;;5050782;28;20058;-78
2023/03/09 09:36:39;;;;;;;10.65;7.22;;;3.30;85.00;;;;;;5052614;28;20037;-76
2023/03/09 09:39:05;;;;;;;13.50;7.07;;;3.30;85.30;;;;;;5052592;28;20163;-75
2023/03/09 09:41:44;;;;;;;11.63;6.00;;;3.20;84.50;;;;;;5053204;28;20115;-76
2023/03/09 09:44:15;;;;;;;11.95;6.20;;;3.30;85.00;;;;;;5066692;28;20384;-77
2023/03/09 09:46:41;;;;;;;9.95;5.82;;;3.10;83.90;;;;;;5046188;28;20037;-75
2023/03/09 09:49:17;;;;;;;11.45;6.13;;;3.10;84.90;;;;;;5053931;28;20090;-75
2023/03/09 09:52:11;;;;;;;11.43;6.90;;;3.10;84.80;;;;;;5048128;28;20037;-74
2023/03/09 09:54:57;;;;;;;11.23;6.38;;;3.00;84.50;;;;;;5041107;28;20037;-77
2023/03/09 09:57:41;;;;;;;9.52;6.07;;;3.10;85.10;;;;;;5039429;28;20076;-77
2023/03/09 10:00:40;;;;;;;10.60;6.60;;;3.10;85.90;;;;;;5054648;28;20496;-76
2023/03/09 10:03:25;;;;;;;12.50;7.18;;;3.00;85.00;;;;;;5043670;28;20040;-76
2023/03/09 10:06:05;;;;;;;12.10;7.03;;;3.10;85.50;;;;;;5051905;28;20029;-76
2023/03/09 10:08:36;;;;;;;11.65;6.68;;;3.10;85.50;;;;;;5057788;28;20036;-71
2023/03/09 10:11:22;;;;;;;11.00;6.85;;;3.20;85.00;;;;;;5043135;28;20474;-70
2023/03/09 10:13:53;;;;;;;11.88;6.63;;;3.00;83.90;;;;;;5048983;28;20040;-70
2023/03/09 10:16:33;;;;;;;11.18;6.50;;;3.10;84.30;;;;;;5045121;28;20037;-71
2023/03/09 10:19:01;;;;;;;12.75;7.10;;;3.10;84.80;;;;;;5043038;28;20059;-70
2023/03/09 10:21:56;;;;;;;11.95;7.43;;;3.00;84.90;;;;;;5049740;28;20028;-71
2023/03/09 10:24:24;;;;;;;13.48;7.30;;;3.10;84.90;;;;;;5037518;28;20029;-70
2023/03/09 10:27:08;;;;;;;10.98;6.70;;;2.80;83.90;;;;;;5045933;28;20520;-71
2023/03/09 10:29:39;;;;;;;11.68;6.63;;;2.80;84.00;;;;;;5049163;28;20132;-71
2023/03/09 10:32:19;;;;;;;12.88;7.30;;;3.00;84.60;;;;;;5046450;28;20048;-70
2023/03/09 10:35:20;;;;;;;10.18;6.80;;;3.00;84.90;;;;;;5041869;28;20034;-71
2023/03/09 10:37:49;;;;;;;12.35;6.75;;;3.10;84.10;;;;;;5031444;28;20543;-71
2023/03/09 10:40:19;;;;;;;10.63;6.43;;;3.00;83.60;;;;;;5046492;28;20043;-70
2023/03/09 10:42:44;;;;;;;11.97;7.03;;;3.00;84.00;;;;;;5041317;28;20073;-71
2023/03/09 10:45:24;;;;;;;11.35;6.93;;;2.90;84.00;;;;;;5040146;28;20366;-72
2023/03/09 10:47:50;;;;;;;10.90;6.88;;;3.00;84.20;;;;;;5046799;28;20029;-71
2023/03/09 10:50:16;;;;;;;10.93;6.47;;;3.20;84.70;;;;;;5033548;28;20035;-71
2023/03/09 10:52:42;;;;;;;10.88;6.63;;;3.30;84.00;;;;;;5049318;28;20032;-71
2023/03/09 10:55:25;;;;;;;12.35;6.63;;;3.30;83.20;;;;;;5043957;28;20036;-71
2023/03/09 10:58:06;;;;;;;12.20;6.57;;;3.60;83.80;;;;;;5048059;28;20585;-71
2023/03/09 11:00:32;;;;;;;;;;;3.50;83.00;;;;;;5045560;28;20061;-71
2023/03/09 11:02:59;;;;;;;10.32;5.93;;;3.60;82.90;;;;;;5044580;28;19956;-72
2023/03/09 11:05:29;;;;;;;10.18;6.60;;;3.50;82.60;;;;;;5049220;28;20024;-75
2023/03/09 11:08:02;;;;;;;10.38;6.43;;;3.40;82.60;;;;;;5047151;28;20037;-72
2023/03/09 11:10:30;;;;;;;10.02;6.53;;;3.50;83.20;;;;;;5046027;28;20033;-72
2023/03/09 11:12:57;;;;;;;12.93;6.75;;;3.50;82.00;;;;;;5042816;28;20481;-72
2023/03/09 11:15:33;;;;;;;9.25;6.20;;;3.60;82.40;;;;;;5040077;28;20469;-72
2023/03/09 11:17:59;;;;;;;11.10;6.80;;;3.70;82.90;;;;;;5037150;28;20029;-72
2023/03/09 11:20:36;;;;;;;10.60;6.47;;;3.80;82.60;;;;;;5045246;28;20462;-72
2023/03/09 11:23:15;;;;;;;11.27;6.78;;;4.00;81.60;;;;;;5055328;28;20536;-71
2023/03/09 11:26:12;;;;;;;10.23;6.07;;;4.10;82.50;;;;;;5051492;28;20033;-72
2023/03/09 11:29:06;;;;;;;10.55;6.38;;;3.90;80.80;;;;;;5049234;28;20025;-72
2023/03/09 11:31:36;;;;;;;13.48;5.97;;;4.10;80.60;;;;;;5048452;28;20122;-72
2023/03/09 11:34:05;;;;;;;11.85;6.80;;;4.00;80.70;;;;;;5049657;28;20524;-71
2023/03/09 11:36:43;;;;;;;10.93;6.32;;;4.00;80.20;;;;;;5049403;28;20047;-72
2023/03/09 11:39:21;;;;;;;10.85;6.75;;;3.60;80.60;;;;;;5050507;28;20033;-72
2023/03/09 11:41:49;;;;;;;11.55;6.22;;;3.90;80.70;;;;;;5050015;28;20033;-74
2023/03/09 11:44:23;;;;;;;15.40;6.63;;;4.20;80.90;;;;;;5045515;28;20041;-71
2023/03/09 11:46:53;;;;;;;12.20;6.30;;;4.20;80.50;;;;;;5039345;28;20041;-71
2023/03/09 11:49:23;;;;;;;11.27;6.75;;;4.60;81.30;;;;;;5049846;28;20422;-72
2023/03/09 11:51:51;;;;;;;9.90;5.93;;;4.70;79.80;;;;;;5059799;28;20036;-72
2023/03/09 11:54:26;;;;;;;9.27;5.80;;;4.80;80.30;;;;;;5048905;28;20567;-73
2023/03/09 11:56:53;;;;;;;10.25;6.32;;;4.60;78.50;;;;;;5060958;28;20024;-73
2023/03/09 11:59:25;;;;;;;10.80;6.47;;;4.50;79.00;;;;;;5049278;28;20032;-73
2023/03/09 12:02:19;;;;;;;9.57;6.43;;;4.70;79.60;;;;;;5048654;28;20165;-73
2023/03/09 12:04:50;;;;;;;10.35;6.05;;;4.50;79.70;;;;;;5045662;28;20409;-73
2023/03/09 12:07:25;;;;;;;9.85;6.05;;;4.30;79.00;;;;;;5050982;28;20443;-73
2023/03/09 12:10:24;;;;;;;9.30;5.80;;;4.20;79.90;;;;;;5042190;28;20133;-72
2023/03/09 12:12:59;;;;;;;10.90;5.55;;;4.10;78.20;;;;;;5044264;28;20496;-71
2023/03/09 12:15:46;;;;;;;9.02;5.65;;;4.20;79.50;;;;;;5055370;28;20041;-72
2023/03/09 12:18:28;;;;;;;9.25;5.88;;;4.50;80.60;;;;;;5053646;28;20036;-73
2023/03/09 12:20:56;;;;;;;8.50;5.60;;;4.50;79.20;;;;;;5053630;28;20029;-74
2023/03/09 12:23:39;;;;;;;8.20;4.88;;;4.30;78.50;;;;;;5052054;28;20045;-74
2023/03/09 12:26:20;;;;;;;8.90;5.82;;;4.30;78.70;;;;;;5053224;28;20095;-73
2023/03/09 12:29:18;;;;;;;11.00;5.85;;;4.50;79.50;;;;;;5051974;28;20388;-73
2023/03/09 12:32:04;;;;;;;10.15;5.88;;;4.50;79.50;;;;;;5047033;28;20049;-74
2023/03/09 12:34:40;;;;;;;8.02;5.18;;;4.70;79.80;;;;;;5047262;28;20045;-72
2023/03/09 12:37:27;;;;;;;8.90;5.38;;;4.60;78.40;;;;;;5044500;28;20469;-73
2023/03/09 12:40:18;;;;;;;11.20;5.95;;;4.60;79.20;;;;;;5047275;28;20036;-73
2023/03/09 12:42:49;;;;;;;8.77;5.10;;;4.70;79.60;;;;;;5049264;28;20390;-73
2023/03/09 12:45:17;;;;;;;9.35;5.32;;;4.20;78.80;;;;;;5048651;28;20037;-73
2023/03/09 12:48:01;;;;;;;9.02;5.40;;;4.20;79.70;;;;;;5048409;28;20455;-74